Pendleton, IN (46064)

11:21 PM EST on November 25, 2014 (GMT -0500)
I69 & St Rd 38 / Exit 219 | Change Station
CLOSE
Current Station
Personal Weather Station
Location: Pendleton, IN
Elevation: 876 ft
Nearby Weather Stations

Elev 876 ft 40.01 °N, 85.77 °W | Updated 9 minutes ago

Overcast
Overcast
26.9 °F
Feels Like 27 °F
N
2.0
Wind Variable Wind from NW
Gusts 3.0 mph

Today
High -- | Low -- °F
--% Chance of Precip.
Yesterday
High -- | Low -- °F
Precip. -- in
7:39 AM 5:20 PM
Waxing Crescent, 16% visible
Pressure 30.19 in
Visibility 10.0 miles
Clouds Overcast 1600 ft
Windchill 27 °F
Dew Point 22 °F
Humidity 83%
Rainfall 0.00 in
Snow Depth Not available.
UV 0 out of 12
Pollen .10 out of 12
Air Quality Not available.
Flu Activity Not available.
METAR KMQJ 260415Z AUTO 34003KT 10SM OVC016 M02/M08 A3019 RMK AO1

More Conditions Fewer Conditions

Pressure 30.19 in
Visibility 10.0 miles
Clouds Overcast 1600 ft
Windchill 27 °F
Dew Point 22 °F
Humidity 83%
Rainfall 0.00 in
Snow Depth Not available.
UV 0 out of 12
Pollen .10 out of 12
Air Quality Not available.
Flu Activity Not available.
METAR KMQJ 260415Z AUTO 34003KT 10SM OVC016 M02/M08 A3019 RMK AO1

More Conditions Fewer Conditions

10-Day Weather Forecast

Almanac

Astronomy

Nov. 25, 2014 Rise Set
Actual Time
Civil Twilight
Nautical Twilight
Astronomical Twilight
Moon
Length of Visible Light
Length of Day
Tomorrow will be .
, % of the Moon is Illuminated

Today's Extremes

State Highs State Lows

Community

WunderPhotos

Upload Photos

1,773,683 photos uploaded!

WunderBlogs® & News

Nearby

Air Quality

  Air Quality AQ Index Pollutant
Not available.

Snow Depth

Station Depth Elevation

Earthquake Activity

City Distance Mag. Time & Date
Minimum magnitude displayed is 2.5.

Coastal Water Temperatures

Place Temperature

Nearby Weather Stations